Time;durP1;ratioP1;P1;durP2;ratioP2;P2;SDS_P1;SDS_P2;PMS_P1;PMS_P2;Temp;Humidity;BMP_temperature;BMP_pressure;BME280_temperature;BME280_humidity;BME280_pressure;Samples;Min_cycle;Max_cycle;Signal;HPM_P1;HPM_P2
2022/05/25 00:01:05;;;;;;;0.47;0.47;;;12.50;99.90;;;;;;5051378;28;20439;-71
2022/05/25 00:03:53;;;;;;;0.40;0.40;;;12.40;99.90;;;;;;5051365;28;20456;-70
2022/05/25 00:06:42;;;;;;;0.50;0.50;;;12.40;99.90;;;;;;5051130;28;20432;-69
2022/05/25 00:09:30;;;;;;;0.50;0.50;;;12.40;99.90;;;;;;5051764;28;20556;-69
2022/05/25 00:12:21;;;;;;;0.50;0.50;;;12.40;99.90;;;;;;5050530;28;20434;-68
2022/05/25 00:15:12;;;;;;;0.40;0.40;;;12.30;99.90;;;;;;5050891;28;20412;-70
2022/05/25 00:18:00;;;;;;;0.50;0.50;;;12.40;99.90;;;;;;5051000;28;20842;-69
2022/05/25 00:20:47;;;;;;;0.40;0.40;;;12.30;99.90;;;;;;5050070;28;20432;-69
2022/05/25 00:23:35;;;;;;;0.47;0.47;;;12.30;99.90;;;;;;5056465;28;20455;-70
2022/05/25 00:26:23;;;;;;;0.40;0.40;;;12.30;99.90;;;;;;5086794;28;20449;-69
2022/05/25 00:29:14;;;;;;;0.40;0.40;;;12.30;99.90;;;;;;5096267;28;20457;-70
2022/05/25 00:32:02;;;;;;;0.40;0.40;;;12.30;99.90;;;;;;5093986;28;21011;-71
2022/05/25 00:34:50;;;;;;;0.40;0.40;;;12.30;99.90;;;;;;5095656;28;20969;-69
2022/05/25 00:37:39;;;;;;;0.50;0.50;;;12.20;99.90;;;;;;5094847;28;20855;-70
2022/05/25 00:40:29;;;;;;;0.50;0.50;;;12.20;99.90;;;;;;5096005;28;20777;-70
2022/05/25 00:43:17;;;;;;;0.50;0.50;;;12.20;99.90;;;;;;5094542;28;20954;-70
2022/05/25 00:46:11;;;;;;;0.50;0.50;;;12.10;99.90;;;;;;5094193;28;20560;-70
2022/05/25 00:49:04;;;;;;;0.40;0.40;;;12.10;99.90;;;;;;5094306;28;20461;-70
2022/05/25 00:51:55;;;;;;;0.50;0.50;;;12.10;99.90;;;;;;5094500;28;20495;-70
2022/05/25 00:54:47;;;;;;;0.50;0.50;;;12.00;99.90;;;;;;5094056;28;20802;-69
2022/05/25 00:57:39;;;;;;;0.50;0.50;;;11.90;99.90;;;;;;5094460;28;20835;-68
2022/05/25 01:00:30;;;;;;;0.50;0.50;;;11.90;99.90;;;;;;5095962;28;21071;-68
2022/05/25 01:03:20;;;;;;;0.40;0.40;;;11.80;99.90;;;;;;5093854;28;20458;-69
2022/05/25 01:06:17;;;;;;;0.50;0.50;;;11.80;99.90;;;;;;5095253;28;20458;-70
2022/05/25 01:09:18;;;;;;;0.47;0.47;;;11.80;99.90;;;;;;5095645;28;20910;-69
2022/05/25 01:12:21;;;;;;;0.50;0.50;;;11.80;99.90;;;;;;5094454;28;20422;-69
2022/05/25 01:15:16;;;;;;;0.40;0.40;;;11.60;99.90;;;;;;5095521;28;20436;-70
2022/05/25 01:18:17;;;;;;;0.40;0.40;;;11.70;99.90;;;;;;5094808;28;20511;-71
2022/05/25 01:21:12;;;;;;;0.40;0.40;;;11.70;99.90;;;;;;5095246;28;20430;-70
2022/05/25 01:24:15;;;;;;;0.40;0.40;;;11.70;99.90;;;;;;5095457;28;20856;-69
2022/05/25 01:27:24;;;;;;;0.50;0.50;;;11.70;99.90;;;;;;5053921;28;20459;-70
2022/05/25 01:30:20;;;;;;;0.40;0.40;;;11.70;99.90;;;;;;5053985;28;20602;-70
2022/05/25 01:33:15;;;;;;;0.40;0.40;;;11.70;99.90;;;;;;5054036;28;20440;-70
2022/05/25 01:36:09;;;;;;;0.40;0.40;;;11.70;99.90;;;;;;5053504;28;20435;-69
2022/05/25 01:39:04;;;;;;;0.40;0.40;;;11.70;99.90;;;;;;5053442;28;20440;-69
2022/05/25 01:41:57;;;;;;;0.50;0.50;;;11.70;99.90;;;;;;5067707;28;20463;-68
2022/05/25 01:44:51;;;;;;;0.40;0.40;;;11.80;99.90;;;;;;5074216;28;20428;-71
2022/05/25 01:47:46;;;;;;;0.40;0.40;;;11.80;99.90;;;;;;5073165;28;20435;-69
2022/05/25 01:50:39;;;;;;;0.40;0.40;;;11.90;99.90;;;;;;5072969;28;20567;-69
2022/05/25 01:53:32;;;;;;;0.40;0.40;;;11.90;99.90;;;;;;5073912;28;20443;-70
2022/05/25 01:56:23;;;;;;;0.40;0.40;;;12.00;99.90;;;;;;5072979;28;20423;-69
2022/05/25 01:59:15;;;;;;;0.47;0.47;;;12.00;99.90;;;;;;5073448;28;20956;-73
2022/05/25 02:05:16;;;;;;;0.50;0.50;;;12.10;99.90;;;;;;5073570;28;20419;-69
2022/05/25 02:08:13;;;;;;;0.40;0.40;;;12.00;99.90;;;;;;5074399;28;20424;-69
2022/05/25 02:11:11;;;;;;;0.50;0.50;;;12.00;99.90;;;;;;5073520;28;20512;-71
2022/05/25 02:14:04;;;;;;;0.40;0.40;;;12.00;99.90;;;;;;5072470;28;20447;-69
2022/05/25 02:17:01;;;;;;;0.40;0.40;;;11.90;99.90;;;;;;5074124;28;21024;-69
2022/05/25 02:19:57;;;;;;;0.50;0.50;;;11.90;99.90;;;;;;5073171;28;20935;-71
2022/05/25 02:22:50;;;;;;;0.50;0.50;;;11.90;99.90;;;;;;5073282;28;20476;-70
2022/05/25 02:25:44;;;;;;;0.50;0.50;;;11.90;99.90;;;;;;5076287;28;20434;-68
2022/05/25 02:28:37;;;;;;;0.50;0.50;;;11.80;99.90;;;;;;5073050;28;20430;-69
2022/05/25 02:31:29;;;;;;;0.50;0.50;;;11.80;99.90;;;;;;5072793;28;20457;-70
2022/05/25 02:34:20;;;;;;;0.50;0.50;;;11.80;99.90;;;;;;5072678;28;20508;-68
2022/05/25 02:37:09;;;;;;;0.40;0.40;;;11.80;99.90;;;;;;5072660;28;20431;-69
2022/05/25 02:40:00;;;;;;;0.50;0.50;;;11.80;99.90;;;;;;5071524;28;20411;-69
2022/05/25 02:42:49;;;;;;;0.40;0.40;;;11.80;99.90;;;;;;5072242;28;20442;-70
2022/05/25 02:45:38;;;;;;;0.47;0.47;;;11.80;99.90;;;;;;5073489;28;20480;-68
2022/05/25 02:48:26;;;;;;;0.40;0.40;;;11.80;99.90;;;;;;5071052;28;20438;-70
2022/05/25 02:51:14;;;;;;;0.40;0.40;;;11.90;99.90;;;;;;5073594;28;20451;-70
2022/05/25 02:54:03;;;;;;;0.40;0.40;;;11.90;99.90;;;;;;5075346;28;20443;-69
2022/05/25 02:56:53;;;;;;;0.50;0.50;;;11.90;99.90;;;;;;5071515;28;20800;-71
2022/05/25 02:59:41;;;;;;;0.40;0.40;;;11.90;99.90;;;;;;5073424;28;20423;-70
2022/05/25 03:02:30;;;;;;;0.40;0.40;;;11.90;99.90;;;;;;5071212;28;20482;-69
2022/05/25 03:05:18;;;;;;;0.43;0.43;;;11.90;99.90;;;;;;5072198;28;20427;-69
2022/05/25 03:08:06;;;;;;;0.40;0.40;;;12.00;99.90;;;;;;5072136;28;20816;-70
2022/05/25 03:10:55;;;;;;;0.50;0.50;;;12.00;99.90;;;;;;5071882;28;20470;-69
2022/05/25 03:13:48;;;;;;;0.40;0.40;;;12.00;99.90;;;;;;5071954;28;20443;-70
2022/05/25 03:16:36;;;;;;;0.50;0.50;;;12.00;99.90;;;;;;5072286;28;20435;-69
2022/05/25 03:19:25;;;;;;;0.83;0.83;;;12.10;99.90;;;;;;5072229;28;20423;-69
2022/05/25 03:22:13;;;;;;;0.50;0.50;;;12.10;99.90;;;;;;5071015;28;20429;-69
2022/05/25 03:25:01;;;;;;;0.43;0.43;;;12.20;99.90;;;;;;5071510;28;20427;-70
2022/05/25 03:27:49;;;;;;;0.40;0.40;;;12.30;99.90;;;;;;5072512;28;20431;-70
2022/05/25 03:30:39;;;;;;;0.40;0.40;;;12.40;99.90;;;;;;5071957;28;21023;-70
2022/05/25 03:33:27;;;;;;;0.50;0.50;;;12.50;99.90;;;;;;5071630;28;20450;-70
2022/05/25 03:36:15;;;;;;;0.50;0.50;;;12.50;99.90;;;;;;5071186;28;20432;-70
2022/05/25 03:39:03;;;;;;;0.40;0.40;;;12.60;99.90;;;;;;5071494;28;20434;-70
2022/05/25 03:41:54;;;;;;;0.50;0.50;;;12.60;99.90;;;;;;5088759;28;20426;-70
2022/05/25 03:44:43;;;;;;;0.40;0.40;;;12.60;99.90;;;;;;5091765;28;20422;-72
2022/05/25 03:47:33;;;;;;;0.40;0.40;;;12.60;99.90;;;;;;5091844;28;20426;-69
2022/05/25 03:50:23;;;;;;;0.40;0.40;;;12.60;99.90;;;;;;5091557;28;20469;-70
2022/05/25 03:53:14;;;;;;;0.40;0.40;;;12.70;99.90;;;;;;5091364;28;20523;-71
2022/05/25 03:56:04;;;;;;;0.40;0.40;;;12.70;99.90;;;;;;5092688;28;20431;-69
2022/05/25 03:58:52;;;;;;;0.40;0.40;;;12.80;99.90;;;;;;5091471;28;20783;-69
2022/05/25 04:01:40;;;;;;;0.50;0.50;;;12.90;99.90;;;;;;5091496;28;20429;-70
2022/05/25 04:04:30;;;;;;;0.90;0.90;;;12.90;99.90;;;;;;5090751;28;20812;-71
2022/05/25 04:07:18;;;;;;;0.50;0.50;;;12.90;99.90;;;;;;5091871;28;20426;-70
2022/05/25 04:10:08;;;;;;;0.50;0.50;;;12.90;99.90;;;;;;5091124;28;20426;-69
2022/05/25 04:12:56;;;;;;;0.40;0.40;;;13.00;99.90;;;;;;5090990;28;20449;-69
2022/05/25 04:15:44;;;;;;;0.50;0.50;;;13.10;99.90;;;;;;5092337;28;20475;-70
2022/05/25 04:18:33;;;;;;;0.40;0.40;;;13.20;99.90;;;;;;5090741;28;20418;-69
2022/05/25 04:21:22;;;;;;;0.47;0.47;;;13.20;99.90;;;;;;5090812;28;20429;-71
2022/05/25 04:24:12;;;;;;;0.50;0.50;;;13.30;99.90;;;;;;5091526;28;20438;-69
2022/05/25 04:27:01;;;;;;;0.43;0.43;;;13.30;99.90;;;;;;5054000;28;20804;-69
2022/05/25 04:29:49;;;;;;;0.40;0.40;;;13.30;99.90;;;;;;5052374;28;20987;-70
2022/05/25 04:32:38;;;;;;;0.40;0.40;;;13.40;99.90;;;;;;5050594;28;20578;-70
2022/05/25 04:35:27;;;;;;;0.40;0.40;;;13.40;99.90;;;;;;5056821;28;20439;-69
2022/05/25 04:38:17;;;;;;;0.40;0.40;;;13.40;99.90;;;;;;5068039;28;20451;-69
2022/05/25 04:41:05;;;;;;;0.40;0.40;;;13.50;99.90;;;;;;5076090;28;20426;-71
2022/05/25 04:43:53;;;;;;;0.40;0.40;;;13.50;99.90;;;;;;5090593;28;20446;-70
2022/05/25 04:46:41;;;;;;;0.60;0.60;;;13.50;99.90;;;;;;5090356;28;20491;-70
2022/05/25 04:49:30;;;;;;;0.50;0.50;;;13.60;99.90;;;;;;5091166;28;20434;-70
2022/05/25 04:52:18;;;;;;;0.50;0.50;;;13.60;99.90;;;;;;5090625;28;20468;-69
2022/05/25 04:55:10;;;;;;;0.40;0.40;;;13.60;99.90;;;;;;5072163;28;20438;-69
2022/05/25 04:57:58;;;;;;;0.80;0.80;;;13.60;99.90;;;;;;5072011;28;20971;-69
2022/05/25 05:00:46;;;;;;;0.50;0.50;;;13.60;99.90;;;;;;5069781;28;20415;-69
2022/05/25 05:03:35;;;;;;;0.60;0.60;;;13.70;99.90;;;;;;5070645;28;20459;-69
2022/05/25 05:06:23;;;;;;;0.40;0.40;;;13.70;99.90;;;;;;5070970;28;20431;-71
2022/05/25 05:09:12;;;;;;;0.40;0.40;;;13.80;99.90;;;;;;5072306;28;20423;-69
2022/05/25 05:12:02;;;;;;;0.40;0.40;;;13.90;99.90;;;;;;5074762;28;21006;-69
2022/05/25 05:14:56;;;;;;;0.40;0.40;;;14.10;99.90;;;;;;5074999;28;20351;-70
2022/05/25 05:17:44;;;;;;;0.50;0.50;;;14.30;99.90;;;;;;5074800;28;20807;-69
2022/05/25 05:20:32;;;;;;;0.50;0.50;;;14.40;99.90;;;;;;5054805;28;20990;-68
2022/05/25 05:23:20;;;;;;;0.50;0.50;;;14.50;99.90;;;;;;5055057;28;20701;-70
2022/05/25 05:26:09;;;;;;;0.43;0.43;;;14.60;99.90;;;;;;5055551;28;20458;-70
2022/05/25 05:28:59;;;;;;;0.50;0.50;;;14.60;99.90;;;;;;5055260;28;20431;-69
2022/05/25 05:31:47;;;;;;;0.50;0.50;;;14.70;99.90;;;;;;5055427;28;20217;-71
2022/05/25 05:34:36;;;;;;;0.50;0.50;;;14.90;99.90;;;;;;5054076;28;20219;-69
2022/05/25 05:37:30;;;;;;;0.87;0.83;;;15.00;99.90;;;;;;5055373;28;20197;-70
2022/05/25 05:40:20;;;;;;;0.40;0.40;;;15.10;99.90;;;;;;5054898;28;20205;-70
2022/05/25 05:43:09;;;;;;;0.50;0.50;;;14.90;99.90;;;;;;5054690;28;20268;-71
2022/05/25 05:45:59;;;;;;;0.40;0.40;;;15.00;99.90;;;;;;5056740;28;20202;-71
2022/05/25 05:48:47;;;;;;;0.40;0.40;;;15.00;99.90;;;;;;5065881;28;20204;-69
2022/05/25 05:51:36;;;;;;;0.57;0.57;;;15.20;99.90;;;;;;5066482;28;20228;-69
2022/05/25 05:54:25;;;;;;;0.40;0.40;;;15.40;99.90;;;;;;5067113;28;20224;-69
2022/05/25 05:57:14;;;;;;;0.50;0.50;;;15.50;99.90;;;;;;5066262;28;20423;-69
2022/05/25 06:00:05;;;;;;;0.40;0.40;;;15.60;99.90;;;;;;5066421;28;20197;-71
2022/05/25 06:02:54;;;;;;;0.50;0.50;;;15.70;99.90;;;;;;5066073;28;20229;-69
2022/05/25 06:05:43;;;;;;;0.40;0.40;;;15.70;99.90;;;;;;5068062;28;20203;-69
2022/05/25 06:08:32;;;;;;;0.47;0.47;;;15.70;99.90;;;;;;5068102;28;20524;-69
2022/05/25 06:11:21;;;;;;;0.40;0.40;;;15.70;99.90;;;;;;5066799;28;20214;-69
2022/05/25 06:14:09;;;;;;;0.68;0.68;;;15.80;99.90;;;;;;5066691;28;20665;-71
2022/05/25 06:20:06;;;;;;;0.40;0.40;;;15.80;99.90;;;;;;5066636;28;20202;-70
2022/05/25 06:22:54;;;;;;;0.40;0.40;;;15.90;99.90;;;;;;5058462;28;20626;-69
2022/05/25 06:25:42;;;;;;;0.40;0.40;;;16.00;99.90;;;;;;5075665;28;20199;-69
2022/05/25 06:28:31;;;;;;;0.40;0.40;;;16.10;99.90;;;;;;5098676;28;20302;-70
2022/05/25 06:31:19;;;;;;;0.40;0.40;;;16.30;99.90;;;;;;5097311;28;20216;-72
2022/05/25 06:34:07;;;;;;;0.40;0.40;;;16.50;99.90;;;;;;5093729;28;20220;-70
2022/05/25 06:36:57;;;;;;;0.50;0.50;;;16.70;99.90;;;;;;5093185;28;20192;-70
2022/05/25 06:39:45;;;;;;;0.50;0.50;;;16.90;99.90;;;;;;5092824;28;20203;-70
2022/05/25 06:42:36;;;;;;;0.60;0.60;;;16.90;99.90;;;;;;5091598;28;20219;-70
2022/05/25 06:45:24;;;;;;;0.40;0.40;;;16.80;99.90;;;;;;5092472;28;20199;-69
2022/05/25 06:48:13;;;;;;;0.40;0.40;;;16.80;99.90;;;;;;5092203;28;20579;-69
2022/05/25 06:51:09;;;;;;;0.60;0.60;;;16.90;99.90;;;;;;5093685;28;20203;-69
2022/05/25 06:53:59;;;;;;;0.40;0.40;;;16.90;99.90;;;;;;5092624;28;20276;-70
2022/05/25 06:56:47;;;;;;;0.40;0.40;;;17.00;99.90;;;;;;5091259;28;20661;-70
2022/05/25 06:59:35;;;;;;;0.40;0.40;;;17.30;99.90;;;;;;5092715;28;20203;-71
2022/05/25 07:02:25;;;;;;;0.40;0.40;;;17.50;99.90;;;;;;5092230;28;20223;-70
2022/05/25 07:05:14;;;;;;;0.40;0.40;;;17.40;99.90;;;;;;5091672;28;20192;-69
2022/05/25 07:08:02;;;;;;;0.40;0.40;;;17.60;99.90;;;;;;5091732;28;20207;-70
2022/05/25 07:10:51;;;;;;;0.52;0.52;;;17.70;99.90;;;;;;5092072;28;20238;-70
2022/05/25 07:13:40;;;;;;;0.50;0.50;;;17.60;99.90;;;;;;5092388;28;20232;-71
2022/05/25 07:16:28;;;;;;;0.40;0.40;;;17.50;99.90;;;;;;5093251;28;20296;-70
2022/05/25 07:19:17;;;;;;;0.70;0.70;;;17.50;99.90;;;;;;5092028;28;20203;-73
2022/05/25 07:22:09;;;;;;;0.40;0.40;;;17.50;99.90;;;;;;5090133;28;20199;-70
2022/05/25 07:25:03;;;;;;;0.40;0.40;;;17.70;99.90;;;;;;5087121;28;20666;-72
2022/05/25 07:27:53;;;;;;;1.27;1.20;;;17.60;99.90;;;;;;5072190;28;20234;-70
2022/05/25 07:30:41;;;;;;;0.95;0.95;;;17.60;99.90;;;;;;5072345;28;20204;-71
2022/05/25 07:33:30;;;;;;;0.52;0.52;;;17.50;99.90;;;;;;5071085;28;20274;-70
2022/05/25 07:36:18;;;;;;;0.40;0.40;;;17.40;99.90;;;;;;5072470;28;20212;-69
2022/05/25 07:39:11;;;;;;;0.40;0.40;;;17.60;99.90;;;;;;5070902;28;20197;-69
2022/05/25 07:42:02;;;;;;;0.60;0.60;;;17.90;99.90;;;;;;5063917;28;20224;-72
2022/05/25 07:44:56;;;;;;;0.50;0.50;;;18.20;99.90;;;;;;5071433;28;20669;-72
2022/05/25 07:47:44;;;;;;;0.50;0.50;;;18.40;99.90;;;;;;5069615;28;20204;-70
2022/05/25 07:50:34;;;;;;;0.50;0.50;;;18.50;99.90;;;;;;5072270;28;20251;-70
2022/05/25 07:56:31;;;;;;;0.60;0.60;;;18.40;99.90;;;;;;5072205;28;20196;-69
2022/05/25 07:59:20;;;;;;;0.40;0.40;;;18.50;99.90;;;;;;5072439;28;20216;-69
2022/05/25 08:05:44;;;;;;;0.70;0.70;;;18.20;99.90;;;;;;5072349;28;20201;-71
2022/05/25 08:08:33;;;;;;;1.50;0.85;;;18.10;99.90;;;;;;5071900;28;20254;-70
2022/05/25 08:11:22;;;;;;;1.42;1.33;;;18.00;99.90;;;;;;5071696;28;20196;-71
2022/05/25 08:14:10;;;;;;;0.40;0.40;;;17.80;99.90;;;;;;5072615;28;20342;-70
2022/05/25 08:16:59;;;;;;;1.75;1.13;;;17.60;99.90;;;;;;5071940;28;20193;-70
2022/05/25 08:19:49;;;;;;;0.40;0.40;;;17.50;99.90;;;;;;5072634;28;20696;-70
2022/05/25 08:22:38;;;;;;;0.40;0.40;;;17.30;99.90;;;;;;5071687;28;20216;-69
2022/05/25 08:25:27;;;;;;;0.40;0.40;;;17.10;99.90;;;;;;5072655;28;20200;-71
2022/05/25 08:28:15;;;;;;;0.47;0.47;;;17.00;99.90;;;;;;5077309;28;20203;-71
2022/05/25 08:31:03;;;;;;;0.50;0.50;;;16.90;99.90;;;;;;5073284;28;20196;-67
2022/05/25 08:33:52;;;;;;;0.50;0.50;;;16.90;99.90;;;;;;5071333;28;20297;-69
2022/05/25 08:36:42;;;;;;;1.02;0.60;;;16.80;99.90;;;;;;5072505;28;20196;-72
2022/05/25 08:39:30;;;;;;;1.70;1.05;;;16.90;99.90;;;;;;5066885;28;20204;-69
2022/05/25 08:42:22;;;;;;;1.63;1.13;;;16.80;99.90;;;;;;5068201;28;20196;-70
2022/05/25 08:45:10;;;;;;;0.40;0.40;;;16.80;99.90;;;;;;5056131;28;20197;-70
2022/05/25 08:48:00;;;;;;;1.70;1.25;;;16.90;99.90;;;;;;5067958;28;20288;-69
2022/05/25 08:50:53;;;;;;;0.85;0.85;;;17.00;99.90;;;;;;5074614;28;20188;-68
2022/05/25 08:53:43;;;;;;;0.60;0.60;;;17.20;99.90;;;;;;5074916;28;20224;-70
2022/05/25 08:56:39;;;;;;;0.40;0.40;;;17.40;99.90;;;;;;5075417;28;20209;-71
2022/05/25 08:59:34;;;;;;;0.40;0.40;;;17.60;99.90;;;;;;5074902;28;20605;-70
2022/05/25 09:02:28;;;;;;;0.40;0.40;;;17.90;99.90;;;;;;5074106;28;20232;-71
2022/05/25 09:05:21;;;;;;;0.40;0.40;;;18.10;99.90;;;;;;5074652;28;20586;-71
2022/05/25 09:08:20;;;;;;;0.40;0.40;;;18.20;99.90;;;;;;5069037;28;20200;-69
2022/05/25 09:11:13;;;;;;;0.50;0.50;;;18.10;99.90;;;;;;5074084;28;20215;-73
2022/05/25 09:14:06;;;;;;;0.40;0.40;;;18.20;99.90;;;;;;5074007;28;20221;-70
2022/05/25 09:16:57;;;;;;;0.40;0.40;;;18.30;99.90;;;;;;5074430;28;20701;-72
2022/05/25 09:19:47;;;;;;;0.40;0.40;;;18.60;99.90;;;;;;5074522;28;20283;-70
2022/05/25 09:22:36;;;;;;;0.40;0.40;;;19.10;99.90;;;;;;5074215;28;20637;-70
2022/05/25 09:25:25;;;;;;;0.50;0.50;;;19.70;99.90;;;;;;5075128;28;20256;-69
2022/05/25 09:28:19;;;;;;;0.82;0.82;;;20.00;99.90;;;;;;5074609;28;20692;-69
2022/05/25 09:31:08;;;;;;;0.40;0.40;;;20.00;99.90;;;;;;5074820;28;20201;-71
2022/05/25 09:33:58;;;;;;;0.50;0.50;;;19.70;99.90;;;;;;5073954;28;20228;-70
2022/05/25 09:36:51;;;;;;;0.40;0.40;;;19.80;99.90;;;;;;5071237;28;20733;-71
2022/05/25 09:39:44;;;;;;;0.40;0.40;;;19.90;99.90;;;;;;5056959;28;20201;-71
2022/05/25 09:42:35;;;;;;;0.40;0.40;;;19.90;99.90;;;;;;5071637;28;20719;-69
2022/05/25 09:45:26;;;;;;;0.40;0.40;;;19.90;99.90;;;;;;5072920;28;20266;-72
2022/05/25 09:48:17;;;;;;;0.80;0.70;;;19.70;99.90;;;;;;5056737;28;20205;-69
2022/05/25 09:51:19;;;;;;;0.45;0.45;;;19.30;99.90;;;;;;5067705;28;20693;-69
2022/05/25 09:54:14;;;;;;;0.40;0.40;;;19.20;99.90;;;;;;5063801;28;20720;-70
2022/05/25 09:57:07;;;;;;;0.40;0.40;;;19.40;99.90;;;;;;5059045;28;20212;-69
2022/05/25 10:00:00;;;;;;;0.50;0.50;;;19.80;99.90;;;;;;5069263;28;20266;-70
2022/05/25 10:02:52;;;;;;;0.50;0.50;;;20.40;99.90;;;;;;5065266;28;20224;-69
2022/05/25 10:05:54;;;;;;;0.40;0.40;;;20.90;99.90;;;;;;5072547;28;20284;-71
2022/05/25 10:08:42;;;;;;;1.25;1.15;;;20.90;99.90;;;;;;5073100;28;20204;-71
2022/05/25 10:11:33;;;;;;;0.47;0.47;;;21.00;99.90;;;;;;5073774;28;20231;-70
2022/05/25 10:14:27;;;;;;;0.40;0.40;;;20.90;99.90;;;;;;5073048;28;20228;-70
2022/05/25 10:17:31;;;;;;;0.40;0.40;;;20.90;99.90;;;;;;5073022;28;20211;-69
2022/05/25 10:20:24;;;;;;;0.40;0.40;;;21.10;99.90;;;;;;5073838;28;20200;-70
2022/05/25 10:23:20;;;;;;;1.23;1.13;;;21.20;99.90;;;;;;5073071;28;20212;-69
2022/05/25 10:26:12;;;;;;;0.40;0.40;;;21.40;99.90;;;;;;5072630;28;20669;-70
2022/05/25 10:29:06;;;;;;;0.40;0.40;;;21.40;99.90;;;;;;5075089;28;20197;-69
2022/05/25 10:38:26;;;;;;;0.40;0.40;;;21.30;99.30;;;;;;5092904;28;20210;-69
2022/05/25 10:44:23;;;;;;;0.40;0.40;;;21.30;99.20;;;;;;5092638;28;20265;-70
2022/05/25 10:47:25;;;;;;;0.40;0.40;;;21.10;98.60;;;;;;5092908;28;20215;-71
2022/05/25 10:50:20;;;;;;;0.40;0.40;;;20.50;99.00;;;;;;5091995;28;20672;-70
2022/05/25 10:53:21;;;;;;;0.40;0.40;;;20.40;99.60;;;;;;5091495;28;20223;-71
2022/05/25 10:56:22;;;;;;;0.40;0.40;;;20.20;99.90;;;;;;5092301;28;20195;-70
2022/05/25 10:59:20;;;;;;;0.40;0.40;;;20.20;99.90;;;;;;5092007;28;20684;-70
2022/05/25 11:02:28;;;;;;;0.47;0.47;;;20.20;99.90;;;;;;5092568;28;20577;-69
2022/05/25 11:05:24;;;;;;;0.40;0.40;;;20.20;99.10;;;;;;5092973;28;20580;-70
2022/05/25 11:08:21;;;;;;;0.40;0.40;;;20.00;99.70;;;;;;5090487;28;20577;-70
2022/05/25 11:11:19;;;;;;;0.40;0.40;;;19.80;99.90;;;;;;5092564;28;20196;-71
2022/05/25 11:14:23;;;;;;;0.40;0.40;;;19.70;99.90;;;;;;5052584;28;20621;-70
2022/05/25 11:17:24;;;;;;;2.95;1.15;;;19.80;99.90;;;;;;5059111;28;20200;-71
2022/05/25 11:20:21;;;;;;;0.40;0.40;;;20.30;99.90;;;;;;5060746;28;20700;-72
2022/05/25 11:23:36;;;;;;;0.60;0.60;;;20.60;99.70;;;;;;5064779;28;20599;-72
2022/05/25 11:26:42;;;;;;;0.50;0.50;;;20.70;98.10;;;;;;5072901;28;20204;-71
2022/05/25 11:29:48;;;;;;;0.68;0.68;;;20.50;97.70;;;;;;5082896;28;20200;-70
2022/05/25 11:32:51;;;;;;;0.40;0.40;;;20.40;97.90;;;;;;5090689;28;20765;-71
2022/05/25 11:35:53;;;;;;;0.40;0.40;;;20.40;98.50;;;;;;5089486;28;20211;-73
2022/05/25 11:39:03;;;;;;;0.40;0.40;;;20.40;98.50;;;;;;5091516;28;20621;-73
2022/05/25 11:42:07;;;;;;;0.50;0.50;;;20.20;98.80;;;;;;5076859;28;20201;-72
2022/05/25 11:45:09;;;;;;;0.40;0.40;;;20.30;99.00;;;;;;5070475;28;20284;-72
2022/05/25 11:48:24;;;;;;;0.40;0.40;;;20.50;98.90;;;;;;5071437;28;20681;-72
2022/05/25 11:51:22;;;;;;;0.40;0.40;;;20.40;99.00;;;;;;5072030;28;20208;-73
2022/05/25 11:54:26;;;;;;;0.40;0.40;;;20.40;99.20;;;;;;5069735;28;20225;-73
2022/05/25 11:57:22;;;;;;;0.50;0.50;;;20.30;99.10;;;;;;5066510;28;20204;-71
2022/05/25 12:00:27;;;;;;;0.40;0.40;;;20.50;98.60;;;;;;5070617;28;20197;-71
2022/05/25 12:03:38;;;;;;;0.40;0.40;;;20.80;99.10;;;;;;5070248;28;20293;-72
2022/05/25 12:06:47;;;;;;;0.40;0.40;;;21.10;97.90;;;;;;5069839;28;20212;-72
2022/05/25 12:10:01;;;;;;;0.40;0.40;;;21.20;96.10;;;;;;5070270;28;20205;-70
2022/05/25 12:12:56;;;;;;;0.40;0.40;;;21.20;95.90;;;;;;5063063;28;20227;-72
2022/05/25 12:15:55;;;;;;;1.40;0.50;;;21.20;96.00;;;;;;5061745;28;20223;-69
2022/05/25 12:18:50;;;;;;;0.40;0.40;;;21.00;94.30;;;;;;5069200;28;20286;-72
2022/05/25 12:21:42;;;;;;;0.50;0.50;;;20.90;95.30;;;;;;5063061;28;20200;-71
2022/05/25 12:24:36;;;;;;;0.40;0.40;;;20.80;95.20;;;;;;5073758;28;20199;-71
2022/05/25 12:27:37;;;;;;;0.40;0.40;;;20.90;96.00;;;;;;5074916;28;20203;-69
2022/05/25 12:30:33;;;;;;;0.50;0.50;;;21.20;95.20;;;;;;5070968;28;20200;-71
2022/05/25 12:33:25;;;;;;;0.40;0.40;;;21.70;93.00;;;;;;5078585;28;20220;-70
2022/05/25 12:36:17;;;;;;;0.40;0.40;;;22.30;92.30;;;;;;5073906;28;20227;-71
2022/05/25 12:40:00;;;;;;;0.40;0.40;;;23.40;92.60;;;;;;5074299;28;20204;-69
2022/05/25 12:42:50;;;;;;;0.50;0.50;;;25.10;86.10;;;;;;5059117;28;20729;-68
2022/05/25 12:49:33;;;;;;;0.50;0.50;;;28.80;72.80;;;;;;5056860;28;20194;-69
2022/05/25 12:52:53;;;;;;;0.80;0.60;;;29.90;67.00;;;;;;5057097;28;20670;-69
2022/05/25 12:56:16;;;;;;;0.40;0.40;;;27.80;67.50;;;;;;5066261;28;20366;-69
2022/05/25 12:59:15;;;;;;;0.40;0.40;;;26.20;69.20;;;;;;5077359;28;20209;-71
2022/05/25 13:02:22;;;;;;;0.40;0.40;;;24.40;71.60;;;;;;5075911;28;20204;-68
2022/05/25 13:05:31;;;;;;;0.50;0.50;;;23.70;73.50;;;;;;5075976;28;20677;-70
2022/05/25 13:09:08;;;;;;;0.40;0.40;;;23.10;75.20;;;;;;5072909;28;20262;-69
2022/05/25 13:11:59;;;;;;;0.40;0.40;;;22.60;77.00;;;;;;5071319;28;20676;-70
2022/05/25 13:15:02;;;;;;;0.50;0.50;;;22.60;77.30;;;;;;5071262;28;20209;-72
2022/05/25 13:17:53;;;;;;;0.40;0.40;;;22.60;77.00;;;;;;5070440;28;20706;-72
2022/05/25 13:21:02;;;;;;;0.50;0.50;;;22.40;78.20;;;;;;5072122;28;20201;-70
2022/05/25 13:24:29;;;;;;;1.50;0.85;;;22.60;78.60;;;;;;5063610;28;20851;-71
2022/05/25 13:28:09;;;;;;;0.40;0.40;;;23.10;79.00;;;;;;5067319;28;20673;-69
2022/05/25 13:31:29;;;;;;;0.40;0.40;;;24.50;78.10;;;;;;4993200;28;20290;-71
2022/05/25 13:34:21;;;;;;;0.40;0.40;;;25.00;79.00;;;;;;5072185;28;20224;-69
2022/05/25 13:37:14;;;;;;;0.88;0.88;;;27.20;75.60;;;;;;5064756;28;20205;-69
2022/05/25 13:40:10;;;;;;;0.40;0.40;;;29.20;70.60;;;;;;5065513;28;20214;-69
2022/05/25 13:43:00;;;;;;;0.40;0.40;;;32.20;65.70;;;;;;5073223;28;20629;-70
2022/05/25 13:45:51;;;;;;;0.40;0.40;;;32.70;60.80;;;;;;5075260;28;20189;-69
2022/05/25 13:48:52;;;;;;;0.40;0.40;;;33.40;58.10;;;;;;5074494;28;20275;-70
2022/05/25 13:51:42;;;;;;;0.40;0.40;;;35.40;54.30;;;;;;5074270;28;20229;-69
2022/05/25 13:54:34;;;;;;;0.40;0.40;;;36.10;51.90;;;;;;5074199;28;20200;-69
2022/05/25 13:57:35;;;;;;;0.40;0.40;;;35.10;50.20;;;;;;5074633;28;20212;-69
2022/05/25 14:00:35;;;;;;;0.40;0.40;;;34.50;50.10;;;;;;5094390;28;20199;-71
2022/05/25 14:03:27;;;;;;;0.40;0.40;;;34.70;50.50;;;;;;5093496;28;20602;-69
2022/05/25 14:06:16;;;;;;;0.40;0.40;;;36.10;48.10;;;;;;5093539;28;20223;-69
2022/05/25 14:12:14;;;;;;;0.40;0.40;;;35.80;45.60;;;;;;5089942;28;20203;-69
2022/05/25 14:15:02;;;;;;;0.40;0.40;;;34.20;48.30;;;;;;5065173;28;20726;-69
2022/05/25 14:17:58;;;;;;;0.40;0.40;;;34.10;48.60;;;;;;5070696;28;20212;-69
2022/05/25 14:20:46;;;;;;;0.40;0.40;;;34.60;47.10;;;;;;5073879;28;20205;-70
2022/05/25 14:23:34;;;;;;;0.40;0.40;;;36.30;46.10;;;;;;5071223;28;20221;-69
2022/05/25 14:26:25;;;;;;;0.40;0.40;;;37.20;44.50;;;;;;5073576;28;20200;-70
2022/05/25 14:29:16;;;;;;;0.40;0.40;;;38.00;44.10;;;;;;5062255;28;20201;-69
2022/05/25 14:32:14;;;;;;;0.40;0.40;;;38.80;43.00;;;;;;5072720;28;20583;-70
2022/05/25 14:35:07;;;;;;;0.40;0.40;;;38.60;42.60;;;;;;5073446;28;20204;-70
2022/05/25 14:37:56;;;;;;;0.40;0.40;;;38.90;42.70;;;;;;5070018;28;20665;-70
2022/05/25 14:41:21;;;;;;;0.50;0.50;;;40.10;42.50;;;;;;5063803;28;20197;-69
2022/05/25 14:44:39;;;;;;;0.40;0.40;;;37.40;41.70;;;;;;5063141;28;20220;-69
2022/05/25 14:47:31;;;;;;;0.40;0.40;;;35.50;44.60;;;;;;5066216;28;20200;-70
2022/05/25 14:50:22;;;;;;;0.50;0.50;;;36.40;43.80;;;;;;5063968;28;20261;-69
2022/05/25 14:53:13;;;;;;;0.40;0.40;;;37.00;43.30;;;;;;5064464;28;20228;-70
2022/05/25 14:56:06;;;;;;;0.40;0.40;;;37.80;42.90;;;;;;5061826;28;20708;-70
2022/05/25 14:58:56;;;;;;;0.40;0.40;;;38.40;42.30;;;;;;5065785;28;20457;-70
2022/05/25 15:01:55;;;;;;;0.40;0.40;;;38.80;42.30;;;;;;5063998;28;20212;-70
2022/05/25 15:04:44;;;;;;;0.60;0.60;;;39.00;41.40;;;;;;5062455;28;20197;-69
2022/05/25 15:07:32;;;;;;;0.40;0.40;;;39.80;41.00;;;;;;5066897;28;20242;-69
2022/05/25 15:10:20;;;;;;;0.40;0.40;;;40.00;40.80;;;;;;5063492;28;20193;-70
2022/05/25 15:13:08;;;;;;;0.40;0.40;;;38.80;41.40;;;;;;5068711;28;20217;-70
2022/05/25 15:19:25;;;;;;;0.40;0.40;;;35.10;43.80;;;;;;5065183;28;20196;-70
2022/05/25 15:22:16;;;;;;;0.40;0.40;;;33.00;47.40;;;;;;5072345;28;20197;-69
2022/05/25 15:25:11;;;;;;;0.40;0.40;;;31.50;49.20;;;;;;5068668;28;20204;-69
2022/05/25 15:28:02;;;;;;;0.40;0.40;;;30.20;51.50;;;;;;5062107;28;20641;-70
2022/05/25 15:30:54;;;;;;;0.40;0.40;;;29.00;53.40;;;;;;5064288;28;20209;-69
2022/05/25 15:33:45;;;;;;;0.98;0.98;;;28.20;55.20;;;;;;5050950;28;20233;-69
2022/05/25 15:36:34;;;;;;;0.40;0.40;;;27.40;56.80;;;;;;5052091;28;20213;-69